createdAt,value
2019-06-26T00:01:04.808Z,101553.22
2019-06-26T00:04:09.121Z,101544.39
2019-06-26T00:07:13.443Z,101537.95
2019-06-26T00:10:17.968Z,101536.47
2019-06-26T00:13:26.703Z,101541.45
2019-06-26T00:16:28.375Z,101546.70
2019-06-26T00:19:32.666Z,101555.92
2019-06-26T00:22:36.979Z,101551.92
2019-06-26T00:25:41.269Z,101539.22
2019-06-26T00:28:45.589Z,101536.42
2019-06-26T00:31:49.878Z,101531.91
2019-06-26T00:34:54.211Z,101527.68
2019-06-26T00:37:58.499Z,101519.98
2019-06-26T00:41:02.821Z,101521.24
2019-06-26T00:44:08.569Z,101522.91
2019-06-26T00:47:12.991Z,101524.19
2019-06-26T00:50:17.699Z,101524.09
2019-06-26T00:53:21.997Z,101527.10
2019-06-26T00:56:26.294Z,101527.98
2019-06-26T00:59:30.609Z,101523.98
2019-06-26T01:02:34.907Z,101520.36
2019-06-26T01:05:39.506Z,101519.89
2019-06-26T01:08:43.781Z,101514.55
2019-06-26T01:11:48.101Z,101514.78
2019-06-26T01:14:52.405Z,101511.63
2019-06-26T01:17:56.708Z,101508.13
2019-06-26T01:21:02.036Z,101513.44
2019-06-26T01:24:06.565Z,101511.37
2019-06-26T01:27:10.875Z,101511.84
2019-06-26T01:30:15.557Z,101509.15
2019-06-26T01:33:19.876Z,101511.94
2019-06-26T01:36:24.304Z,101508.91
2019-06-26T01:39:30.471Z,101507.56
2019-06-26T01:42:34.765Z,101504.39
2019-06-26T01:45:39.115Z,101508.53
2019-06-26T01:48:43.392Z,101505.66
2019-06-26T01:51:47.697Z,101507.58
2019-06-26T01:54:51.990Z,101516.48
2019-06-26T01:57:56.377Z,101506.48
2019-06-26T02:01:00.707Z,101501.56
2019-06-26T02:04:05.134Z,101509.83
2019-06-26T02:07:09.410Z,101500.99
2019-06-26T02:10:14.391Z,101497.67
2019-06-26T02:13:18.734Z,101495.20
2019-06-26T02:16:23.039Z,101507.11
2019-06-26T02:19:27.360Z,101501.85
2019-06-26T02:22:31.864Z,101505.90
2019-06-26T02:25:36.165Z,101501.85
2019-06-26T02:28:40.436Z,101502.35
2019-06-26T02:31:45.930Z,101498.36
2019-06-26T02:34:50.216Z,101496.55
2019-06-26T02:37:54.546Z,101493.05
2019-06-26T02:40:58.848Z,101499.80
2019-06-26T02:44:03.153Z,101492.72
2019-06-26T02:47:19.562Z,101490.44
2019-06-26T02:50:14.926Z,101492.64
2019-06-26T02:53:19.225Z,101491.28
2019-06-26T02:56:23.548Z,101497.98
2019-06-26T02:59:27.841Z,101488.45
2019-06-26T03:02:32.164Z,101485.28
2019-06-26T03:05:36.475Z,101483.84
2019-06-26T03:08:40.843Z,101490.45
2019-06-26T03:11:45.255Z,101477.57
2019-06-26T03:14:49.565Z,101483.84
2019-06-26T03:17:55.705Z,101484.50
2019-06-26T03:20:59.894Z,101484.66
2019-06-26T03:24:04.179Z,101478.00
2019-06-26T03:27:09.280Z,101479.65
2019-06-26T03:30:14.120Z,101476.89
2019-06-26T03:33:18.451Z,101480.32
2019-06-26T03:36:22.722Z,101474.48
2019-06-26T03:39:27.001Z,101470.87
2019-06-26T03:42:31.328Z,101472.27
2019-06-26T03:45:35.776Z,101473.73
2019-06-26T03:48:40.081Z,101469.05
2019-06-26T03:51:44.371Z,101474.64
2019-06-26T03:54:48.664Z,101477.45
2019-06-26T03:57:52.957Z,101475.50
2019-06-26T04:00:57.227Z,101471.81
2019-06-26T04:04:01.520Z,101475.44
2019-06-26T04:07:05.834Z,101474.14
2019-06-26T04:10:10.219Z,101472.55
2019-06-26T04:13:14.547Z,101471.86
2019-06-26T04:16:18.828Z,101477.08
2019-06-26T04:19:23.115Z,101473.55
2019-06-26T04:22:27.448Z,101477.94
2019-06-26T04:25:31.739Z,101474.05
2019-06-26T04:28:36.041Z,101473.67
2019-06-26T04:31:40.323Z,101474.81
2019-06-26T04:34:44.615Z,101482.56
2019-06-26T04:37:48.915Z,101478.89
2019-06-26T04:40:53.218Z,101479.98
2019-06-26T04:43:57.566Z,101478.94
2019-06-26T04:47:01.852Z,101481.45
2019-06-26T04:50:07.628Z,101477.59
2019-06-26T04:53:11.944Z,101477.65
2019-06-26T04:56:16.301Z,101475.45
2019-06-26T05:03:02.710Z,101479.44
2019-06-26T05:06:06.977Z,101475.52
2019-06-26T05:09:11.286Z,101480.09
2019-06-26T05:12:15.573Z,101484.78
2019-06-26T05:15:20.383Z,101486.27
2019-06-26T05:18:24.668Z,101479.20
2019-06-26T05:21:29.052Z,101484.34
2019-06-26T05:24:33.303Z,101495.83
2019-06-26T05:27:37.595Z,101494.17
2019-06-26T05:30:41.826Z,101498.72
2019-06-26T05:33:46.089Z,101500.09
2019-06-26T05:36:50.323Z,101501.92
2019-06-26T05:39:54.916Z,101501.23
2019-06-26T05:42:59.472Z,101502.85
2019-06-26T05:46:03.797Z,101498.02
2019-06-26T05:49:08.006Z,101503.62
2019-06-26T05:52:12.266Z,101510.00
2019-06-26T05:55:16.690Z,101511.75
2019-06-26T05:58:21.135Z,101511.83
2019-06-26T06:01:25.694Z,101509.58
2019-06-26T06:04:30.119Z,101520.72
2019-06-26T06:07:34.354Z,101519.66
2019-06-26T06:10:38.647Z,101521.26
2019-06-26T06:13:42.907Z,101523.55
2019-06-26T06:16:48.087Z,101527.25
2019-06-26T06:19:52.454Z,101529.15
2019-06-26T06:22:56.705Z,101535.69
2019-06-26T06:26:00.925Z,101533.36
2019-06-26T06:29:05.185Z,101545.73
2019-06-26T06:32:09.516Z,101538.20
2019-06-26T06:35:14.171Z,101542.73
2019-06-26T06:38:18.423Z,101543.83
2019-06-26T06:41:22.612Z,101539.55
2019-06-26T06:44:26.865Z,101530.36
2019-06-26T06:47:31.149Z,101532.21
2019-06-26T06:50:35.385Z,101538.97
2019-06-26T06:53:39.619Z,101542.84
2019-06-26T06:56:43.844Z,101544.48
2019-06-26T06:59:48.304Z,101551.72
2019-06-26T07:02:52.587Z,101558.03
2019-06-26T07:05:56.848Z,101558.35
2019-06-26T07:09:01.105Z,101564.70
2019-06-26T07:12:05.338Z,101566.73
2019-06-26T07:15:10.457Z,101568.91
2019-06-26T07:18:14.746Z,101572.42
2019-06-26T07:21:19.002Z,101570.95
2019-06-26T07:24:23.253Z,101573.95
2019-06-26T07:27:27.531Z,101573.50
2019-06-26T07:30:31.766Z,101569.59
2019-06-26T07:33:36.031Z,101570.78
2019-06-26T07:36:40.304Z,101572.52
2019-06-26T07:39:44.604Z,101570.86
2019-06-26T07:42:48.846Z,101579.71
2019-06-26T07:45:53.115Z,101584.20
2019-06-26T07:48:57.765Z,101583.20
2019-06-26T07:52:02.072Z,101587.61
2019-06-26T07:55:06.851Z,101582.34
2019-06-26T07:58:11.084Z,101594.77
2019-06-26T08:01:15.306Z,101601.36
2019-06-26T08:04:19.564Z,101592.69
2019-06-26T08:07:23.778Z,101604.83
2019-06-26T08:10:28.003Z,101619.91
2019-06-26T08:13:32.322Z,101622.36
2019-06-26T08:16:36.644Z,101625.55
2019-06-26T08:19:40.985Z,101631.97
2019-06-26T08:22:45.266Z,101637.36
2019-06-26T08:25:49.537Z,101636.63
2019-06-26T08:28:53.871Z,101639.33
2019-06-26T08:31:58.149Z,101645.17
2019-06-26T08:35:02.461Z,101636.60
2019-06-26T08:38:12.446Z,101640.98
2019-06-26T08:41:13.863Z,101647.32
2019-06-26T08:44:18.133Z,101652.95
2019-06-26T08:47:22.586Z,101656.31
2019-06-26T08:50:26.954Z,101655.68
2019-06-26T08:53:32.786Z,101661.35
2019-06-26T08:56:37.064Z,101663.40
2019-06-26T08:59:41.359Z,101667.73
2019-06-26T09:02:45.623Z,101679.61
2019-06-26T09:05:49.934Z,101678.06
2019-06-26T09:08:54.231Z,101684.89
2019-06-26T09:12:00.289Z,101684.89
2019-06-26T09:15:04.911Z,101688.56
2019-06-26T09:18:09.216Z,101693.61
2019-06-26T09:21:13.505Z,101697.84
2019-06-26T09:24:17.834Z,101694.08
2019-06-26T09:27:22.111Z,101702.89
2019-06-26T09:30:26.625Z,101702.20
2019-06-26T09:33:32.377Z,101708.09
2019-06-26T09:36:36.959Z,101706.11
2019-06-26T09:39:41.234Z,101721.87
2019-06-26T09:42:45.496Z,101719.36
2019-06-26T09:45:51.577Z,101712.55
2019-06-26T09:48:55.893Z,101719.84
2019-06-26T09:52:00.176Z,101715.45
2019-06-26T09:55:05.920Z,101717.78
2019-06-26T09:58:13.198Z,101714.75
2019-06-26T15:41:41.057Z,102013.03
2019-06-26T15:44:45.411Z,102021.91
2019-06-26T15:48:08.705Z,102012.28
2019-06-26T15:51:12.998Z,102011.95
2019-06-26T15:54:17.627Z,102017.24
2019-06-26T15:57:21.915Z,102022.34
2019-06-26T16:00:26.204Z,102030.75
2019-06-26T16:03:31.511Z,102034.50
2019-06-26T16:06:35.800Z,102029.33
2019-06-26T16:09:40.285Z,102038.11
2019-06-26T16:12:44.586Z,102027.62
2019-06-26T16:15:48.893Z,102037.53
2019-06-26T16:18:58.864Z,102038.19
2019-06-26T16:22:03.178Z,102037.45
2019-06-26T16:25:08.000Z,102035.13
2019-06-26T16:28:12.279Z,102035.95
2019-06-26T16:31:16.569Z,102030.05
2019-06-26T16:34:20.882Z,102029.20
2019-06-26T16:37:25.161Z,102030.16
2019-06-26T16:40:29.462Z,102029.66
2019-06-26T16:43:33.767Z,102033.00
2019-06-26T16:46:38.418Z,102031.17
2019-06-26T16:49:42.856Z,102037.37
2019-06-26T16:52:49.614Z,102033.33
2019-06-26T16:55:54.987Z,102031.86
2019-06-26T16:58:59.284Z,102035.25
2019-06-26T17:02:06.910Z,102030.28
2019-06-26T17:05:10.145Z,102026.92
2019-06-26T17:08:14.536Z,102032.28
2019-06-26T17:11:18.845Z,102040.42
2019-06-26T17:14:23.226Z,102038.92
2019-06-26T17:17:27.611Z,102045.00
2019-06-26T17:20:31.919Z,102030.81
2019-06-26T17:23:36.235Z,102043.86
2019-06-26T17:26:40.525Z,102048.33
2019-06-26T17:29:44.857Z,102047.59
2019-06-26T17:32:49.146Z,102044.95
2019-06-26T17:35:53.590Z,102058.26
2019-06-26T17:38:57.886Z,102043.16
2019-06-26T17:42:02.211Z,102049.99
2019-06-26T17:45:06.836Z,102059.66
2019-06-26T17:48:11.169Z,102061.95
2019-06-26T17:51:15.464Z,102067.14
2019-06-26T17:54:19.766Z,102065.11
2019-06-26T17:57:24.063Z,102075.84
2019-06-26T18:00:31.901Z,102074.95
2019-06-26T18:03:36.185Z,102074.36
2019-06-26T18:06:40.504Z,102067.63
2019-06-26T18:09:44.826Z,102073.61
2019-06-26T18:12:49.156Z,102071.94
2019-06-26T18:15:53.458Z,102080.84
2019-06-26T18:18:57.760Z,102083.67
2019-06-26T18:22:02.070Z,102082.48
2019-06-26T18:25:06.889Z,102078.20
2019-06-26T18:28:11.217Z,102088.13
2019-06-26T18:31:15.547Z,102084.88
2019-06-26T18:34:19.851Z,102090.00
2019-06-26T18:37:24.188Z,102091.35
2019-06-26T18:40:28.487Z,102090.38
2019-06-26T18:43:32.951Z,102098.33
2019-06-26T18:46:37.289Z,102099.16
2019-06-26T18:49:41.690Z,102097.50
2019-06-26T18:52:46.055Z,102106.52
2019-06-26T18:55:50.402Z,102098.06
2019-06-26T18:58:54.963Z,102093.56
2019-06-26T19:02:00.381Z,102092.00
2019-06-26T19:05:05.241Z,102098.48
2019-06-26T19:08:09.569Z,102095.34
2019-06-26T19:11:13.902Z,102097.72
2019-06-26T19:14:18.277Z,102109.36
2019-06-26T19:17:22.634Z,102104.26
2019-06-26T19:20:26.972Z,102099.34
2019-06-26T19:23:31.711Z,102124.78
2019-06-26T19:26:36.071Z,102126.45
2019-06-26T19:29:40.434Z,102123.65
2019-06-26T19:32:44.764Z,102126.25
2019-06-26T19:35:49.087Z,102134.16
2019-06-26T19:38:53.371Z,102126.81
2019-06-26T19:41:57.654Z,102130.88
2019-06-26T19:45:02.045Z,102137.20
2019-06-26T19:48:06.444Z,102144.09
2019-06-26T19:51:10.868Z,102145.20
2019-06-26T19:54:26.730Z,102154.27
2019-06-26T19:57:21.281Z,102147.39
2019-06-26T20:00:25.571Z,102154.94
2019-06-26T20:03:29.874Z,102152.70
2019-06-26T20:06:34.229Z,102155.45
2019-06-26T20:09:38.672Z,102152.80
2019-06-26T20:12:42.978Z,102147.14
2019-06-26T20:15:47.275Z,102158.03
2019-06-26T20:18:51.693Z,102151.84
2019-06-26T20:21:56.080Z,102174.68
2019-06-26T20:25:00.501Z,102157.75
2019-06-26T20:28:04.795Z,102156.49
2019-06-26T20:31:09.111Z,102165.77
2019-06-26T20:34:13.429Z,102166.81
2019-06-26T20:37:17.780Z,102164.35
2019-06-26T20:40:22.316Z,102170.95
2019-06-26T20:43:26.653Z,102170.35
2019-06-26T20:46:30.972Z,102169.63
2019-06-26T20:49:35.255Z,102165.31
2019-06-26T20:52:39.538Z,102179.42
2019-06-26T20:55:43.826Z,102175.35
2019-06-26T20:58:48.182Z,102186.47
2019-06-26T21:01:52.507Z,102181.92
2019-06-26T21:04:56.827Z,102179.99
2019-06-26T21:08:01.145Z,102174.72
2019-06-26T21:11:06.409Z,102178.09
2019-06-26T21:14:10.809Z,102182.16
2019-06-26T21:17:15.165Z,102190.92
2019-06-26T21:20:20.446Z,102189.95
2019-06-26T21:23:24.783Z,102195.16
2019-06-26T21:26:29.111Z,102190.27
2019-06-26T21:29:33.492Z,102191.23
2019-06-26T21:32:37.817Z,102179.08
2019-06-26T21:35:42.110Z,102181.43
2019-06-26T21:38:46.500Z,102181.12
2019-06-26T21:41:50.822Z,102179.42
2019-06-26T21:44:55.102Z,102183.14
2019-06-26T21:47:59.451Z,102188.63
2019-06-26T21:51:03.742Z,102205.45
2019-06-26T21:54:08.030Z,102201.52
2019-06-26T21:57:12.463Z,102203.91
2019-06-26T22:00:17.297Z,102207.05
2019-06-26T22:03:21.689Z,102201.78
2019-06-26T22:06:26.482Z,102200.75
2019-06-26T22:09:31.026Z,102200.75
2019-06-26T22:12:35.545Z,102203.47
2019-06-26T22:15:39.886Z,102201.72
2019-06-26T22:18:44.309Z,102204.23
2019-06-26T22:21:48.658Z,102205.04
2019-06-26T22:24:53.025Z,102211.56
2019-06-26T22:27:57.382Z,102217.83
2019-06-26T22:31:01.672Z,102203.02
2019-06-26T22:34:05.982Z,102205.74
2019-06-26T22:37:10.251Z,102208.99
2019-06-26T22:40:14.549Z,102210.91
2019-06-26T22:43:18.815Z,102210.95
2019-06-26T22:46:23.116Z,102209.27
2019-06-26T22:49:27.392Z,102208.66
2019-06-26T22:52:31.711Z,102210.03
2019-06-26T22:55:35.975Z,102213.97
2019-06-26T22:58:40.269Z,102204.36
2019-06-26T23:01:44.543Z,102217.75
2019-06-26T23:04:48.837Z,102208.06
2019-06-26T23:07:53.107Z,102206.04
2019-06-26T23:10:57.411Z,102215.65
2019-06-26T23:14:01.719Z,102211.75
2019-06-26T23:17:06.120Z,102210.62
2019-06-26T23:20:10.753Z,102207.54
2019-06-26T23:23:15.021Z,102212.02
2019-06-26T23:26:23.994Z,102220.67
2019-06-26T23:29:25.321Z,102208.88
2019-06-26T23:32:29.747Z,102225.19
2019-06-26T23:35:34.074Z,102213.87
2019-06-26T23:38:38.345Z,102218.44
2019-06-26T23:41:42.617Z,102224.09
2019-06-26T23:44:46.912Z,102218.28
2019-06-26T23:47:52.319Z,102226.87
2019-06-26T23:50:56.585Z,102221.25
2019-06-26T23:54:00.859Z,102204.96
2019-06-26T23:57:05.140Z,102226.78
